createdAt,value
2023-02-19T00:01:25.689Z,79.88
2023-02-19T00:03:53.375Z,79.91
2023-02-19T00:06:19.788Z,80.13
2023-02-19T00:08:45.777Z,79.88
2023-02-19T00:11:13.358Z,79.69
2023-02-19T00:13:44.073Z,79.78
2023-02-19T00:16:18.771Z,79.76
2023-02-19T00:18:44.852Z,79.58
2023-02-19T00:21:11.567Z,79.80
2023-02-19T00:23:37.704Z,79.74
2023-02-19T00:26:17.684Z,79.71
2023-02-19T00:28:45.608Z,79.94
2023-02-19T00:31:14.466Z,79.55
2023-02-19T00:33:40.870Z,79.70
2023-02-19T00:36:07.210Z,79.49
2023-02-19T00:38:36.110Z,79.51
2023-02-19T00:41:18.239Z,79.64
2023-02-19T00:43:54.959Z,79.82
2023-02-19T00:46:28.416Z,79.77
2023-02-19T00:48:54.696Z,79.78
2023-02-19T00:51:24.165Z,79.65
2023-02-19T00:53:50.415Z,79.55
2023-02-19T00:56:16.758Z,79.52
2023-02-19T00:58:42.683Z,79.53
2023-02-19T01:01:09.471Z,79.47
2023-02-19T01:03:36.044Z,79.47
2023-02-19T01:06:02.296Z,79.47
2023-02-19T01:08:30.357Z,79.22
2023-02-19T01:10:59.019Z,79.21
2023-02-19T01:13:25.160Z,79.28
2023-02-19T01:15:51.167Z,79.28
2023-02-19T01:18:17.161Z,79.48
2023-02-19T01:20:43.854Z,79.37
2023-02-19T01:23:10.390Z,79.33
2023-02-19T01:25:40.303Z,79.39
2023-02-19T01:28:06.495Z,79.28
2023-02-19T01:30:36.561Z,79.25
2023-02-19T01:33:07.080Z,79.38
2023-02-19T01:35:33.589Z,79.46
2023-02-19T01:37:59.517Z,79.65
2023-02-19T01:40:26.109Z,79.59
2023-02-19T01:42:52.101Z,79.79
2023-02-19T01:45:31.266Z,79.63
2023-02-19T01:48:03.510Z,79.60
2023-02-19T01:50:32.586Z,79.66
2023-02-19T01:52:59.008Z,79.78
2023-02-19T01:55:24.913Z,79.53
2023-02-19T01:57:52.819Z,79.51
2023-02-19T02:00:18.783Z,79.40
2023-02-19T02:02:48.059Z,79.18
2023-02-19T02:05:24.944Z,79.17
2023-02-19T02:08:10.017Z,79.02
2023-02-19T02:10:35.936Z,78.94
2023-02-19T02:13:01.854Z,79.14
2023-02-19T02:15:34.190Z,79.01
2023-02-19T02:18:16.829Z,79.04
2023-02-19T02:21:03.571Z,79.03
2023-02-19T02:23:40.142Z,78.99
2023-02-19T02:26:15.433Z,79.08
2023-02-19T02:28:47.540Z,78.97
2023-02-19T02:31:16.058Z,78.95
2023-02-19T02:34:04.271Z,78.99
2023-02-19T02:36:35.369Z,78.89
2023-02-19T02:39:02.838Z,78.74
2023-02-19T02:41:28.891Z,78.77
2023-02-19T02:43:54.807Z,78.61
2023-02-19T02:46:27.880Z,78.63
2023-02-19T02:48:57.958Z,78.33
2023-02-19T02:51:29.373Z,78.23
2023-02-19T02:54:24.549Z,78.19
2023-02-19T02:56:50.770Z,78.14
2023-02-19T02:59:21.931Z,78.33
2023-02-19T03:02:13.386Z,78.23
2023-02-19T03:05:15.802Z,78.31
2023-02-19T03:08:05.568Z,78.37
2023-02-19T03:10:48.226Z,78.50
2023-02-19T03:13:53.467Z,78.29
2023-02-19T03:16:42.792Z,78.47
2023-02-19T03:19:20.067Z,78.31
2023-02-19T03:21:59.613Z,78.23
2023-02-19T03:24:48.951Z,78.40
2023-02-19T03:27:16.591Z,78.18
2023-02-19T03:29:45.647Z,78.15
2023-02-19T03:32:21.447Z,78.19
2023-02-19T03:35:08.792Z,78.19
2023-02-19T03:37:40.783Z,78.13
2023-02-19T03:40:07.493Z,78.04
2023-02-19T03:42:58.590Z,78.56
2023-02-19T03:45:34.994Z,78.44
2023-02-19T03:48:15.836Z,78.40
2023-02-19T03:50:51.544Z,78.36
2023-02-19T03:53:29.157Z,78.13
2023-02-19T03:56:08.405Z,78.09
2023-02-19T03:58:41.106Z,77.99
2023-02-19T04:01:14.350Z,78.19
2023-02-19T04:03:46.249Z,78.32
2023-02-19T04:06:14.022Z,78.27
2023-02-19T04:08:42.273Z,78.34
2023-02-19T04:11:08.623Z,78.11
2023-02-19T04:13:37.955Z,78.06
2023-02-19T04:16:07.221Z,78.12
2023-02-19T04:18:35.794Z,78.12
2023-02-19T04:21:01.751Z,78.05
2023-02-19T04:23:27.933Z,78.17
2023-02-19T04:25:55.744Z,77.93
2023-02-19T04:28:21.704Z,77.88
2023-02-19T04:30:47.657Z,77.84
2023-02-19T04:33:13.618Z,77.66
2023-02-19T04:35:39.709Z,77.79
2023-02-19T04:38:05.719Z,77.93
2023-02-19T04:40:31.687Z,77.93
2023-02-19T04:42:57.616Z,77.79
2023-02-19T04:45:23.541Z,78.05
2023-02-19T04:47:49.607Z,77.76
2023-02-19T04:50:15.743Z,78.03
2023-02-19T04:52:41.706Z,77.90
2023-02-19T04:55:07.747Z,77.64
2023-02-19T04:57:34.320Z,77.69
2023-02-19T05:00:00.242Z,77.63
2023-02-19T05:02:26.209Z,77.70
2023-02-19T05:04:52.227Z,77.77
2023-02-19T05:07:18.311Z,77.61
2023-02-19T05:09:44.259Z,77.62
2023-02-19T05:12:10.177Z,77.45
2023-02-19T05:14:36.291Z,77.65
2023-02-19T05:17:02.256Z,77.48
2023-02-19T05:19:28.185Z,77.43
2023-02-19T05:21:54.153Z,77.48
2023-02-19T05:24:20.085Z,77.46
2023-02-19T05:26:47.641Z,77.30
2023-02-19T05:29:13.654Z,77.24
2023-02-19T05:31:39.758Z,77.07
2023-02-19T05:34:05.870Z,76.93
2023-02-19T05:36:32.058Z,76.76
2023-02-19T05:38:58.187Z,76.78
2023-02-19T05:41:25.706Z,76.66
2023-02-19T05:43:51.847Z,76.79
2023-02-19T05:46:20.974Z,76.63
2023-02-19T05:48:47.993Z,76.81
2023-02-19T05:51:15.996Z,76.92
2023-02-19T05:53:42.187Z,77.03
2023-02-19T05:56:42.387Z,77.00
2023-02-19T05:59:16.846Z,77.03
2023-02-19T06:01:42.861Z,77.18
2023-02-19T06:04:10.221Z,77.32
2023-02-19T06:06:36.767Z,77.38
2023-02-19T06:09:03.973Z,77.33
2023-02-19T06:11:29.877Z,77.48
2023-02-19T06:13:55.935Z,77.50
2023-02-19T06:16:22.222Z,77.51
2023-02-19T06:18:48.315Z,77.50
2023-02-19T06:21:14.782Z,77.57
2023-02-19T06:23:40.886Z,77.46
2023-02-19T06:26:09.671Z,77.39
2023-02-19T06:28:36.265Z,77.49
2023-02-19T06:31:02.766Z,77.55
2023-02-19T06:33:28.945Z,77.59
2023-02-19T06:35:57.447Z,77.64
2023-02-19T06:38:23.416Z,77.55
2023-02-19T06:40:49.326Z,77.48
2023-02-19T06:43:15.247Z,77.76
2023-02-19T06:45:41.329Z,77.74
2023-02-19T06:48:07.358Z,77.79
2023-02-19T06:50:33.284Z,77.86
2023-02-19T06:52:59.163Z,77.83
2023-02-19T06:55:25.069Z,77.89
2023-02-19T06:57:50.949Z,77.96
2023-02-19T07:00:17.347Z,77.57
2023-02-19T07:02:43.397Z,77.67
2023-02-19T07:05:09.359Z,77.67
2023-02-19T07:07:35.357Z,77.75
2023-02-19T07:10:01.240Z,77.86
2023-02-19T07:12:27.305Z,77.67
2023-02-19T07:14:53.304Z,77.67
2023-02-19T07:17:19.235Z,77.83
2023-02-19T07:19:45.125Z,77.91
2023-02-19T07:22:11.023Z,77.83
2023-02-19T07:24:36.993Z,77.92
2023-02-19T07:27:03.061Z,77.87
2023-02-19T07:29:28.967Z,78.25
2023-02-19T07:31:54.887Z,78.10
2023-02-19T07:34:20.831Z,78.00
2023-02-19T07:36:46.721Z,77.94
2023-02-19T07:39:14.993Z,77.97
2023-02-19T07:41:40.940Z,77.88
2023-02-19T07:44:06.835Z,77.68
2023-02-19T07:46:32.757Z,77.76
2023-02-19T07:48:59.076Z,77.74
2023-02-19T07:51:27.527Z,77.74
2023-02-19T07:53:53.468Z,77.67
2023-02-19T07:56:20.082Z,77.52
2023-02-19T07:58:46.003Z,77.52
2023-02-19T08:01:16.652Z,77.59
2023-02-19T08:03:42.815Z,77.70
2023-02-19T08:06:10.655Z,77.57
2023-02-19T08:08:40.026Z,77.31
2023-02-19T08:11:24.810Z,77.47
2023-02-19T08:13:51.388Z,77.57
2023-02-19T08:16:29.668Z,77.28
2023-02-19T08:18:59.524Z,77.30
2023-02-19T08:21:25.518Z,77.24
2023-02-19T08:23:51.515Z,77.17
2023-02-19T08:26:17.649Z,76.86
2023-02-19T08:28:43.597Z,76.52
2023-02-19T08:31:10.908Z,76.67
2023-02-19T08:33:37.588Z,76.62
2023-02-19T08:36:05.000Z,76.54
2023-02-19T08:38:32.155Z,76.55
2023-02-19T08:40:58.435Z,76.69
2023-02-19T08:43:24.401Z,76.59
2023-02-19T08:45:52.415Z,76.72
2023-02-19T08:48:18.303Z,76.75
2023-02-19T08:50:44.230Z,76.67
2023-02-19T08:53:10.193Z,76.46
2023-02-19T08:55:36.798Z,76.29
2023-02-19T08:58:02.731Z,75.94
2023-02-19T09:00:28.684Z,75.89
2023-02-19T09:02:57.037Z,75.72
2023-02-19T09:05:23.009Z,75.74
2023-02-19T09:07:49.042Z,75.61
2023-02-19T09:10:15.020Z,75.82
2023-02-19T09:12:41.074Z,75.81
2023-02-19T09:15:07.432Z,75.87
2023-02-19T09:17:33.378Z,75.66
2023-02-19T09:19:59.346Z,75.54
2023-02-19T09:22:25.338Z,75.50
2023-02-19T09:24:51.231Z,75.19
2023-02-19T09:27:18.240Z,75.17
2023-02-19T09:29:44.222Z,75.26
2023-02-19T09:32:10.602Z,75.19
2023-02-19T09:34:38.326Z,75.00
2023-02-19T09:37:05.056Z,74.95
2023-02-19T09:39:31.321Z,75.06
2023-02-19T09:42:00.886Z,75.12
2023-02-19T09:44:34.161Z,74.81
2023-02-19T09:47:00.759Z,74.93
2023-02-19T09:49:38.317Z,74.31
2023-02-19T09:52:12.049Z,74.44
2023-02-19T09:54:38.693Z,74.31
2023-02-19T09:57:04.812Z,74.01
2023-02-19T10:02:40.288Z,72.72
2023-02-19T10:05:13.078Z,72.74
2023-02-19T10:07:47.065Z,72.86
2023-02-19T10:10:12.947Z,72.39
2023-02-19T10:12:50.656Z,72.30
2023-02-19T10:15:30.418Z,72.23
2023-02-19T10:17:56.384Z,71.43
2023-02-19T10:20:24.185Z,70.91
2023-02-19T10:22:58.606Z,70.43
2023-02-19T10:25:24.522Z,69.86
2023-02-19T10:27:50.554Z,68.94
2023-02-19T10:30:22.330Z,69.18
2023-02-19T10:33:00.616Z,68.44
2023-02-19T10:35:26.648Z,68.00
2023-02-19T10:37:52.555Z,67.67
2023-02-19T10:40:23.530Z,67.24
2023-02-19T10:42:58.385Z,67.47
2023-02-19T10:45:34.609Z,67.59
2023-02-19T10:48:00.724Z,67.47
2023-02-19T10:50:30.741Z,67.36
2023-02-19T10:52:57.919Z,66.92
2023-02-19T10:55:31.341Z,66.63
2023-02-19T10:57:57.427Z,65.85
2023-02-19T11:00:29.624Z,65.39
2023-02-19T11:03:28.162Z,65.15
2023-02-19T11:06:00.681Z,65.47
2023-02-19T11:08:26.613Z,65.32
2023-02-19T11:10:52.699Z,65.01
2023-02-19T11:13:25.491Z,65.59
2023-02-19T11:15:52.903Z,65.77
2023-02-19T11:18:30.683Z,65.68
2023-02-19T11:20:57.834Z,65.80
2023-02-19T11:23:30.938Z,65.80
2023-02-19T11:26:02.732Z,65.14
2023-02-19T11:28:36.189Z,64.98
2023-02-19T11:31:15.802Z,65.29
2023-02-19T11:34:29.227Z,65.13
2023-02-19T11:37:15.108Z,64.97
2023-02-19T11:39:45.024Z,64.99
2023-02-19T11:42:32.325Z,65.25
2023-02-19T11:45:21.003Z,64.65
2023-02-19T11:47:54.893Z,64.57
2023-02-19T11:50:49.327Z,64.73
2023-02-19T11:53:25.894Z,64.41
2023-02-19T11:56:13.960Z,64.64
2023-02-19T11:58:59.516Z,64.67
2023-02-19T12:01:26.463Z,64.53
2023-02-19T12:03:52.459Z,64.32
2023-02-19T12:06:40.088Z,64.62
2023-02-19T12:09:23.410Z,64.43
2023-02-19T12:12:14.427Z,64.41
2023-02-19T12:14:52.058Z,63.91
2023-02-19T12:17:33.269Z,63.51
2023-02-19T12:20:18.171Z,63.32
2023-02-19T12:23:35.726Z,62.72
2023-02-19T12:26:06.836Z,63.18
2023-02-19T12:28:44.760Z,63.12
2023-02-19T12:31:58.575Z,62.96
2023-02-19T12:34:50.319Z,62.53
2023-02-19T12:37:44.634Z,62.63
2023-02-19T12:40:32.747Z,62.78
2023-02-19T12:43:20.696Z,62.53
2023-02-19T12:46:05.395Z,61.98
2023-02-19T12:48:52.995Z,61.22
2023-02-19T12:51:37.485Z,61.01
2023-02-19T12:54:06.665Z,61.05
2023-02-19T12:56:44.151Z,60.49
2023-02-19T12:59:35.824Z,60.68
2023-02-19T13:02:33.012Z,60.53
2023-02-19T13:05:03.550Z,60.27
2023-02-19T13:07:37.557Z,60.20
2023-02-19T13:10:33.522Z,60.22
2023-02-19T13:13:03.204Z,60.21
2023-02-19T13:15:43.568Z,59.96
2023-02-19T13:18:15.921Z,60.01
2023-02-19T13:20:42.660Z,59.95
2023-02-19T13:23:50.064Z,60.00
2023-02-19T13:26:25.505Z,60.04
2023-02-19T13:29:06.456Z,59.77
2023-02-19T13:31:52.453Z,59.82
2023-02-19T13:34:27.721Z,59.75
2023-02-19T13:36:54.047Z,60.02
2023-02-19T13:39:20.678Z,60.14
2023-02-19T13:41:51.135Z,60.36
2023-02-19T13:44:24.811Z,60.27
2023-02-19T13:46:51.037Z,60.13
2023-02-19T13:49:49.594Z,60.21
2023-02-19T13:52:18.451Z,60.06
2023-02-19T13:54:44.432Z,60.12
2023-02-19T13:57:22.804Z,59.83
2023-02-19T13:59:53.421Z,59.61
2023-02-19T14:02:22.623Z,60.09
2023-02-19T14:04:51.213Z,60.13
2023-02-19T14:07:17.125Z,59.87
2023-02-19T14:09:44.474Z,59.90
2023-02-19T14:12:15.694Z,59.75
2023-02-19T14:14:51.842Z,59.79
2023-02-19T14:17:26.685Z,59.94
2023-02-19T14:20:00.554Z,59.96
2023-02-19T14:22:57.157Z,59.85
2023-02-19T14:25:39.340Z,59.66
2023-02-19T14:28:32.801Z,59.21
2023-02-19T14:31:09.416Z,58.87
2023-02-19T14:33:39.587Z,58.69
2023-02-19T14:36:15.560Z,58.89
2023-02-19T14:38:59.453Z,58.89
2023-02-19T14:41:26.244Z,58.82
2023-02-19T14:43:53.373Z,58.63
2023-02-19T14:46:32.359Z,58.96
2023-02-19T14:49:00.685Z,58.98
2023-02-19T14:51:34.526Z,59.10
2023-02-19T14:54:02.339Z,59.28
2023-02-19T14:56:31.658Z,59.43
2023-02-19T14:59:08.916Z,59.59
2023-02-19T15:01:35.296Z,59.62
2023-02-19T15:04:01.824Z,59.54
2023-02-19T15:06:27.723Z,59.49
2023-02-19T15:08:57.853Z,59.17
2023-02-19T15:11:24.910Z,59.21
2023-02-19T15:13:52.844Z,59.14
2023-02-19T15:16:19.404Z,59.18
2023-02-19T15:18:45.858Z,59.25
2023-02-19T15:21:20.770Z,59.17
2023-02-19T15:23:46.678Z,59.17
2023-02-19T15:26:20.847Z,59.06
2023-02-19T15:28:46.729Z,59.06
2023-02-19T15:31:14.673Z,59.11
2023-02-19T15:33:48.730Z,59.16
2023-02-19T15:36:14.642Z,59.25
2023-02-19T15:38:40.657Z,59.34
2023-02-19T15:41:07.001Z,59.17
2023-02-19T15:43:44.799Z,59.31
2023-02-19T15:46:12.462Z,59.24
2023-02-19T15:48:44.182Z,59.44
2023-02-19T15:51:14.269Z,59.47
2023-02-19T15:53:43.962Z,59.59
2023-02-19T15:56:17.950Z,59.55
2023-02-19T15:58:51.990Z,59.70
2023-02-19T16:01:24.666Z,59.57
2023-02-19T16:03:53.365Z,59.78
2023-02-19T16:06:19.659Z,59.89
2023-02-19T16:08:51.776Z,59.84
2023-02-19T16:11:24.136Z,60.02
2023-02-19T16:13:50.719Z,60.08
2023-02-19T16:16:24.144Z,60.10
2023-02-19T16:18:50.467Z,60.19
2023-02-19T16:21:17.534Z,60.17
2023-02-19T16:23:43.922Z,60.25
2023-02-19T16:26:09.950Z,60.22
2023-02-19T16:28:37.210Z,60.07
2023-02-19T16:31:10.837Z,60.36
2023-02-19T16:33:44.188Z,60.18
2023-02-19T16:36:32.260Z,60.29
2023-02-19T16:39:00.116Z,60.34
2023-02-19T16:41:26.151Z,60.32
2023-02-19T16:43:52.076Z,60.45
2023-02-19T16:46:18.096Z,60.46
2023-02-19T16:48:44.121Z,60.54
2023-02-19T16:51:13.934Z,60.59
2023-02-19T16:53:39.876Z,60.72
2023-02-19T16:56:09.874Z,60.60
2023-02-19T16:58:37.143Z,60.88
2023-02-19T17:01:04.632Z,60.78
2023-02-19T17:03:30.581Z,60.87
2023-02-19T17:05:56.468Z,60.80
2023-02-19T17:08:30.846Z,60.71
2023-02-19T17:10:58.528Z,60.92
2023-02-19T17:13:24.437Z,60.85
2023-02-19T17:15:50.453Z,60.95
2023-02-19T17:18:16.542Z,60.93
2023-02-19T17:20:42.605Z,60.89
2023-02-19T17:23:08.862Z,60.94
2023-02-19T17:25:34.783Z,60.93
2023-02-19T17:28:00.777Z,61.03
2023-02-19T17:30:28.660Z,60.94
2023-02-19T17:32:54.674Z,60.99
2023-02-19T17:35:20.637Z,61.00
2023-02-19T17:37:46.645Z,60.94
2023-02-19T17:40:31.883Z,61.11
2023-02-19T17:42:59.048Z,61.05
2023-02-19T17:45:25.166Z,61.00
2023-02-19T17:47:51.197Z,61.10
2023-02-19T17:50:19.359Z,61.15
2023-02-19T17:52:45.297Z,61.24
2023-02-19T17:55:11.834Z,61.38
2023-02-19T17:57:37.725Z,61.41
2023-02-19T18:00:05.216Z,61.46
2023-02-19T18:02:38.698Z,61.63
2023-02-19T18:05:05.258Z,61.70
2023-02-19T18:07:31.190Z,61.71
2023-02-19T18:09:57.101Z,61.83
2023-02-19T18:12:25.252Z,61.88
2023-02-19T18:14:53.914Z,61.92
2023-02-19T18:17:20.061Z,61.88
2023-02-19T18:19:46.156Z,62.05
2023-02-19T18:22:12.098Z,62.26
2023-02-19T18:24:38.002Z,62.12
2023-02-19T18:27:03.970Z,62.30
2023-02-19T18:29:30.408Z,62.41
2023-02-19T18:31:56.500Z,62.50
2023-02-19T18:34:22.646Z,62.52
2023-02-19T18:36:48.730Z,62.49
2023-02-19T18:39:15.021Z,62.56
2023-02-19T18:41:40.999Z,62.75
2023-02-19T18:44:07.020Z,62.55
2023-02-19T18:46:33.182Z,62.63
2023-02-19T18:48:59.082Z,62.53
2023-02-19T18:51:25.014Z,62.59
2023-02-19T18:53:51.039Z,62.79
2023-02-19T18:56:17.170Z,62.62
2023-02-19T18:58:43.131Z,62.53
2023-02-19T19:01:09.213Z,62.73
2023-02-19T19:03:35.426Z,62.63
2023-02-19T19:06:01.471Z,62.90
2023-02-19T19:08:29.168Z,63.02
2023-02-19T19:10:56.516Z,62.95
2023-02-19T19:13:22.918Z,63.06
2023-02-19T19:15:50.102Z,62.98
2023-02-19T19:18:16.093Z,63.09
2023-02-19T19:20:42.007Z,62.99
2023-02-19T19:23:07.962Z,63.30
2023-02-19T19:25:33.975Z,63.31
2023-02-19T19:28:00.080Z,63.22
2023-02-19T19:30:26.079Z,63.33
2023-02-19T19:32:52.455Z,63.31
2023-02-19T19:35:18.886Z,63.68
2023-02-19T19:37:44.903Z,63.54
2023-02-19T19:40:11.576Z,63.69
2023-02-19T19:42:37.474Z,63.61
2023-02-19T19:45:04.777Z,63.70
2023-02-19T19:47:30.781Z,63.82
2023-02-19T19:49:56.665Z,63.87
2023-02-19T19:52:22.581Z,63.62
2023-02-19T19:54:53.239Z,63.84
2023-02-19T19:57:19.470Z,63.98
2023-02-19T19:59:50.423Z,63.78
2023-02-19T20:02:16.700Z,63.80
2023-02-19T20:04:42.737Z,63.84
2023-02-19T20:07:08.962Z,63.75
2023-02-19T20:09:34.885Z,63.76
2023-02-19T20:12:01.444Z,63.98
2023-02-19T20:14:27.427Z,63.53
2023-02-19T20:16:54.183Z,63.92
2023-02-19T20:19:20.221Z,63.91
2023-02-19T20:21:47.176Z,63.88
2023-02-19T20:24:15.191Z,63.92
2023-02-19T20:26:41.388Z,63.81
2023-02-19T20:29:09.729Z,63.78
2023-02-19T20:31:36.865Z,63.72
2023-02-19T20:34:03.029Z,63.59
2023-02-19T20:36:29.456Z,63.44
2023-02-19T20:38:55.565Z,63.82
2023-02-19T20:41:21.472Z,63.44
2023-02-19T20:43:47.450Z,63.75
2023-02-19T20:46:13.680Z,63.59
2023-02-19T20:48:39.897Z,63.72
2023-02-19T20:51:05.882Z,63.70
2023-02-19T20:53:31.832Z,63.56
2023-02-19T20:55:58.147Z,63.15
2023-02-19T20:58:24.194Z,63.54
2023-02-19T21:00:52.882Z,63.50
2023-02-19T21:03:19.082Z,63.29
2023-02-19T21:05:45.068Z,63.35
2023-02-19T21:08:11.259Z,63.17
2023-02-19T21:10:37.664Z,63.48
2023-02-19T21:13:03.571Z,63.23
2023-02-19T21:15:29.571Z,63.37
2023-02-19T21:17:55.479Z,63.47
2023-02-19T21:20:21.414Z,63.32
2023-02-19T21:22:47.376Z,63.06
2023-02-19T21:25:13.389Z,63.24
2023-02-19T21:27:39.294Z,63.26
2023-02-19T21:30:06.443Z,63.08
2023-02-19T21:32:32.600Z,63.35
2023-02-19T21:34:59.028Z,63.44
2023-02-19T21:37:24.963Z,63.23
2023-02-19T21:39:51.369Z,63.47
2023-02-19T21:42:17.271Z,63.65
2023-02-19T21:44:43.294Z,63.28
2023-02-19T21:47:10.934Z,63.59
2023-02-19T21:49:37.016Z,63.64
2023-02-19T21:52:03.008Z,63.81
2023-02-19T21:54:29.066Z,63.65
2023-02-19T21:56:55.302Z,63.86
2023-02-19T21:59:21.628Z,63.83
2023-02-19T22:01:47.549Z,64.21
2023-02-19T22:04:15.625Z,63.94
2023-02-19T22:06:41.842Z,64.12
2023-02-19T22:09:08.077Z,64.16
2023-02-19T22:11:34.216Z,64.06
2023-02-19T22:14:00.534Z,64.13
2023-02-19T22:16:27.521Z,64.23
2023-02-19T22:18:55.699Z,64.38
2023-02-19T22:21:22.571Z,64.53
2023-02-19T22:23:49.520Z,64.48
2023-02-19T22:26:22.946Z,64.72
2023-02-19T22:28:48.912Z,64.37
2023-02-19T22:31:19.384Z,64.64
2023-02-19T22:33:45.339Z,64.25
2023-02-19T22:36:25.054Z,64.65
2023-02-19T22:38:51.180Z,64.25
2023-02-19T22:41:17.413Z,64.68
2023-02-19T22:43:43.350Z,64.63
2023-02-19T22:46:10.954Z,64.67
2023-02-19T22:48:37.226Z,64.80
2023-02-19T22:51:03.218Z,64.69
2023-02-19T22:53:29.168Z,64.84
2023-02-19T22:55:55.058Z,64.94
2023-02-19T22:58:20.989Z,64.95
2023-02-19T23:00:47.024Z,65.21
2023-02-19T23:03:13.107Z,65.07
2023-02-19T23:05:39.058Z,65.18
2023-02-19T23:08:05.005Z,65.35
2023-02-19T23:10:31.133Z,65.48
2023-02-19T23:12:57.071Z,65.41
2023-02-19T23:15:23.182Z,65.43
2023-02-19T23:17:49.209Z,65.33
2023-02-19T23:20:15.130Z,65.23
2023-02-19T23:22:41.050Z,65.32
2023-02-19T23:25:07.315Z,65.51
2023-02-19T23:27:33.236Z,65.50
2023-02-19T23:29:59.226Z,65.55
2023-02-19T23:32:25.125Z,65.72
2023-02-19T23:34:51.092Z,65.83
2023-02-19T23:37:17.056Z,65.68
2023-02-19T23:39:43.004Z,65.80
2023-02-19T23:42:13.354Z,65.70
2023-02-19T23:44:39.285Z,65.92
2023-02-19T23:47:05.203Z,65.90
2023-02-19T23:49:31.094Z,66.00
2023-02-19T23:51:56.998Z,65.90
2023-02-19T23:54:22.957Z,66.02
2023-02-19T23:56:48.906Z,66.01
2023-02-19T23:59:15.090Z,65.96
